createdAt,value
2023-02-27T00:01:49.290Z,71.22
2023-02-27T00:06:51.073Z,71.41
2023-02-27T00:11:57.735Z,71.53
2023-02-27T00:17:04.094Z,71.53
2023-02-27T00:22:05.838Z,71.69
2023-02-27T00:27:07.554Z,71.65
2023-02-27T00:32:09.253Z,71.72
2023-02-27T00:37:13.218Z,71.75
2023-02-27T00:42:15.012Z,72.80
2023-02-27T00:47:16.746Z,71.83
2023-02-27T00:52:18.632Z,71.38
2023-02-27T00:57:20.562Z,71.47
2023-02-27T01:02:22.531Z,71.38
2023-02-27T01:07:24.605Z,71.08
2023-02-27T01:12:26.370Z,70.91
2023-02-27T01:17:28.057Z,70.59
2023-02-27T01:22:29.729Z,70.65
2023-02-27T01:27:31.589Z,70.19
2023-02-27T01:32:33.520Z,70.14
2023-02-27T01:37:35.496Z,69.79
2023-02-27T01:42:37.234Z,69.51
2023-02-27T01:47:48.310Z,68.62
2023-02-27T01:52:56.205Z,69.60
2023-02-27T01:57:58.236Z,69.44
2023-02-27T02:03:08.268Z,69.07
2023-02-27T02:08:13.970Z,68.35
2023-02-27T02:13:15.744Z,68.22
2023-02-27T02:18:17.332Z,68.50
2023-02-27T02:23:21.808Z,67.69
2023-02-27T02:28:52.932Z,67.39
2023-02-27T02:34:01.893Z,68.17
2023-02-27T02:39:24.041Z,68.57
2023-02-27T02:44:40.908Z,67.17
2023-02-27T02:49:50.450Z,67.64
2023-02-27T02:55:16.725Z,68.33
2023-02-27T03:00:22.779Z,67.20
2023-02-27T03:05:32.094Z,66.96
2023-02-27T03:10:50.544Z,67.93
2023-02-27T03:16:11.575Z,68.16
2023-02-27T03:21:22.716Z,68.27
2023-02-27T03:26:33.580Z,68.61
2023-02-27T03:31:47.643Z,68.36
2023-02-27T03:37:11.574Z,68.30
2023-02-27T03:42:41.722Z,67.58
2023-02-27T03:47:51.963Z,67.50
2023-02-27T03:52:54.715Z,66.99
2023-02-27T03:57:56.729Z,66.77
2023-02-27T04:03:00.555Z,67.18
2023-02-27T04:08:37.362Z,67.21
2023-02-27T04:14:22.949Z,67.51
2023-02-27T04:19:42.936Z,67.80
2023-02-27T04:25:01.738Z,67.80
2023-02-27T04:30:14.068Z,68.09
2023-02-27T04:35:29.523Z,68.04
2023-02-27T04:40:49.109Z,68.40
2023-02-27T04:45:53.390Z,68.69
2023-02-27T04:51:03.259Z,69.16
2023-02-27T04:56:12.013Z,69.25
2023-02-27T05:06:35.422Z,69.23
2023-02-27T05:11:53.724Z,68.79
2023-02-27T05:17:40.032Z,69.54
2023-02-27T05:22:51.196Z,69.52
2023-02-27T05:28:02.768Z,69.92
2023-02-27T05:33:13.109Z,69.99
2023-02-27T05:38:28.663Z,70.09
2023-02-27T05:43:48.985Z,69.91
2023-02-27T05:48:57.212Z,69.92
2023-02-27T05:54:16.312Z,69.61
2023-02-27T05:59:26.555Z,69.22
2023-02-27T06:04:28.909Z,69.69
2023-02-27T06:09:31.869Z,69.97
2023-02-27T06:14:33.537Z,69.64
2023-02-27T06:19:35.450Z,69.96
2023-02-27T06:24:37.424Z,69.24
2023-02-27T06:29:39.078Z,69.66
2023-02-27T06:34:40.686Z,69.89
2023-02-27T06:39:42.387Z,68.87
2023-02-27T06:44:44.110Z,69.09
2023-02-27T06:49:45.783Z,68.59
2023-02-27T06:54:47.362Z,69.22
2023-02-27T06:59:49.161Z,68.95
2023-02-27T07:04:51.353Z,69.00
2023-02-27T07:09:53.121Z,68.64
2023-02-27T07:14:54.696Z,66.91
2023-02-27T07:19:56.358Z,66.16
2023-02-27T07:24:58.038Z,65.60
2023-02-27T07:30:00.316Z,68.38
2023-02-27T07:35:03.439Z,67.05
2023-02-27T07:40:07.702Z,66.73
2023-02-27T07:45:09.952Z,67.15
2023-02-27T07:50:14.067Z,66.62
2023-02-27T07:55:15.898Z,66.92
2023-02-27T08:00:18.176Z,66.20
2023-02-27T08:05:19.857Z,66.87
2023-02-27T08:10:21.519Z,66.94
2023-02-27T08:15:23.164Z,67.35
2023-02-27T08:20:25.341Z,66.68
2023-02-27T08:25:27.207Z,65.86
2023-02-27T08:30:29.088Z,67.42
2023-02-27T08:35:31.426Z,68.12
2023-02-27T08:40:33.271Z,67.14
2023-02-27T08:45:34.826Z,65.80
2023-02-27T08:50:36.478Z,66.30
2023-02-27T08:55:38.203Z,67.20
2023-02-27T09:00:39.828Z,66.95
2023-02-27T09:05:42.565Z,68.12
2023-02-27T09:10:44.305Z,67.78
2023-02-27T09:15:47.416Z,68.03
2023-02-27T09:20:51.207Z,68.88
2023-02-27T09:25:53.122Z,69.05
2023-02-27T09:30:54.784Z,68.55
2023-02-27T09:35:56.354Z,67.40
2023-02-27T09:40:59.593Z,66.95
2023-02-27T09:46:02.936Z,65.37
2023-02-27T09:51:05.171Z,62.66
2023-02-27T09:56:21.660Z,61.56
2023-02-27T10:01:57.161Z,58.88
2023-02-27T10:07:04.022Z,63.00
2023-02-27T10:12:14.740Z,61.06
2023-02-27T10:17:28.425Z,60.80
2023-02-27T10:22:43.247Z,60.95
2023-02-27T10:27:48.329Z,60.75
2023-02-27T10:32:54.378Z,61.17
2023-02-27T10:38:01.900Z,60.42
2023-02-27T10:43:06.439Z,60.97
2023-02-27T10:48:08.715Z,63.07
2023-02-27T10:53:22.478Z,62.23
2023-02-27T10:58:24.616Z,60.97
2023-02-27T11:03:32.475Z,58.60
2023-02-27T11:08:35.882Z,58.78
2023-02-27T11:13:47.074Z,60.62
2023-02-27T11:18:51.164Z,60.44
2023-02-27T11:24:02.153Z,57.46
2023-02-27T11:29:17.758Z,59.29
2023-02-27T11:34:48.173Z,57.47
2023-02-27T11:39:57.813Z,57.49
2023-02-27T11:45:07.632Z,61.19
2023-02-27T11:50:32.160Z,62.34
2023-02-27T11:55:34.974Z,58.82
2023-02-27T12:00:42.340Z,57.10
2023-02-27T12:05:48.636Z,58.73
2023-02-27T12:11:22.033Z,59.76
2023-02-27T12:16:43.151Z,60.28
2023-02-27T12:21:50.122Z,58.66
2023-02-27T12:27:01.244Z,58.58
2023-02-27T12:32:40.806Z,58.41
2023-02-27T12:37:42.577Z,59.62
2023-02-27T12:43:10.878Z,58.09
2023-02-27T12:48:23.903Z,59.51
2023-02-27T12:53:25.547Z,62.13
2023-02-27T12:58:42.813Z,60.68
2023-02-27T13:04:00.552Z,57.12
2023-02-27T13:09:15.867Z,56.54
2023-02-27T13:14:53.619Z,57.35
2023-02-27T13:20:01.807Z,57.78
2023-02-27T13:25:14.251Z,58.65
2023-02-27T13:30:22.944Z,55.53
2023-02-27T13:35:36.261Z,55.02
2023-02-27T13:40:40.913Z,54.12
2023-02-27T13:45:59.197Z,54.44
2023-02-27T13:51:01.773Z,55.38
2023-02-27T13:56:22.298Z,58.36
2023-02-27T14:01:28.563Z,61.75
2023-02-27T14:06:30.956Z,62.58
2023-02-27T14:11:39.705Z,61.21
2023-02-27T14:16:41.362Z,60.58
2023-02-27T14:22:10.747Z,58.97
2023-02-27T14:27:24.062Z,58.39
2023-02-27T14:32:33.757Z,59.61
2023-02-27T14:37:36.285Z,58.90
2023-02-27T14:42:56.949Z,58.42
2023-02-27T14:47:59.041Z,59.43
2023-02-27T14:53:01.655Z,60.12
2023-02-27T14:58:16.157Z,60.61
2023-02-27T15:03:32.435Z,60.70
2023-02-27T15:08:41.898Z,61.59
2023-02-27T15:13:45.032Z,60.14
2023-02-27T15:18:50.910Z,60.92
2023-02-27T15:24:01.351Z,60.39
2023-02-27T15:29:06.179Z,59.78
2023-02-27T15:34:13.976Z,60.21
2023-02-27T15:39:19.032Z,59.54
2023-02-27T15:44:26.062Z,60.43
2023-02-27T15:49:27.869Z,61.15
2023-02-27T15:54:34.390Z,61.45
2023-02-27T15:59:42.100Z,61.94
2023-02-27T16:04:46.059Z,61.92
2023-02-27T16:10:00.699Z,62.39
2023-02-27T16:15:21.040Z,62.12
2023-02-27T16:20:54.986Z,61.20
2023-02-27T16:26:09.005Z,60.22
2023-02-27T16:31:40.656Z,60.23
2023-02-27T16:36:52.931Z,60.26
2023-02-27T16:41:56.890Z,61.14
2023-02-27T16:47:12.107Z,61.47
2023-02-27T16:52:13.773Z,61.59
2023-02-27T16:57:17.590Z,61.22
2023-02-27T17:02:19.317Z,61.78
2023-02-27T17:07:20.950Z,61.81
2023-02-27T17:12:22.648Z,61.94
2023-02-27T17:17:24.288Z,61.35
2023-02-27T17:22:26.049Z,59.52
2023-02-27T17:27:27.810Z,60.92
2023-02-27T17:32:29.702Z,62.88
2023-02-27T17:37:31.415Z,62.72
2023-02-27T17:42:35.795Z,61.46
2023-02-27T17:47:37.528Z,60.91
2023-02-27T17:52:39.991Z,61.23
2023-02-27T17:57:41.816Z,58.26
2023-02-27T18:02:45.037Z,60.51
2023-02-27T18:07:46.713Z,60.86
2023-02-27T18:12:48.387Z,62.42
2023-02-27T18:17:50.118Z,61.94
2023-02-27T18:22:51.923Z,60.15
2023-02-27T18:27:56.923Z,58.82
2023-02-27T18:32:59.503Z,61.32
2023-02-27T18:38:02.343Z,62.45
2023-02-27T18:43:04.918Z,59.18
2023-02-27T18:48:06.892Z,58.12
2023-02-27T18:53:08.506Z,59.47
2023-02-27T18:58:10.451Z,59.81
2023-02-27T19:03:12.315Z,60.32
2023-02-27T19:08:14.112Z,60.54
2023-02-27T19:13:15.803Z,60.60
2023-02-27T19:18:17.598Z,60.75
2023-02-27T19:23:19.322Z,60.85
2023-02-27T19:28:21.289Z,61.75
2023-02-27T19:33:22.903Z,63.05
2023-02-27T19:38:24.716Z,62.34
2023-02-27T19:43:26.566Z,60.84
2023-02-27T19:48:28.292Z,60.28
2023-02-27T19:53:30.079Z,60.30
2023-02-27T19:58:33.559Z,60.49
2023-02-27T20:03:36.450Z,60.54
2023-02-27T20:08:38.195Z,61.02
2023-02-27T20:13:40.208Z,61.25
2023-02-27T20:18:42.929Z,61.63
2023-02-27T20:23:47.486Z,61.65
2023-02-27T20:28:52.168Z,62.26
2023-02-27T20:33:54.721Z,63.19
2023-02-27T20:38:58.447Z,62.59
2023-02-27T20:44:01.339Z,62.34
2023-02-27T20:49:04.498Z,61.38
2023-02-27T20:54:09.157Z,60.98
2023-02-27T20:59:14.970Z,61.56
2023-02-27T21:04:19.803Z,61.90
2023-02-27T21:09:22.281Z,61.52
2023-02-27T21:14:23.992Z,61.02
2023-02-27T21:19:26.017Z,60.84
2023-02-27T21:24:27.730Z,61.30
2023-02-27T21:29:29.884Z,61.53
2023-02-27T21:34:31.650Z,61.13
2023-02-27T21:39:33.469Z,61.43
2023-02-27T21:44:35.265Z,60.92
2023-02-27T21:49:38.414Z,61.03
2023-02-27T21:54:40.274Z,61.12
2023-02-27T21:59:42.587Z,62.30
2023-02-27T22:04:44.243Z,62.02
2023-02-27T22:09:49.859Z,60.85
2023-02-27T22:14:55.448Z,61.45
2023-02-27T22:19:57.927Z,60.46
2023-02-27T22:24:59.737Z,60.28
2023-02-27T22:30:01.549Z,60.11
2023-02-27T22:35:03.421Z,59.88
2023-02-27T22:40:05.895Z,58.45
2023-02-27T22:45:08.967Z,61.11
2023-02-27T22:50:14.254Z,63.02
2023-02-27T22:55:17.310Z,61.86
2023-02-27T23:00:19.226Z,61.88
2023-02-27T23:05:21.038Z,61.09
2023-02-27T23:10:22.636Z,61.36
2023-02-27T23:15:24.390Z,61.12
2023-02-27T23:20:26.065Z,60.39
2023-02-27T23:25:27.901Z,60.67
2023-02-27T23:30:30.163Z,59.56
2023-02-27T23:35:31.857Z,61.67
2023-02-27T23:40:35.978Z,63.31
2023-02-27T23:45:39.806Z,62.08
2023-02-27T23:50:43.897Z,60.62
2023-02-27T23:55:45.677Z,61.08
